createdAt,value
2022-10-01T00:00:38.227Z,9.62
2022-10-01T00:01:35.670Z,9.64
2022-10-01T00:02:35.262Z,9.65
2022-10-01T00:03:35.625Z,9.64
2022-10-01T00:04:35.266Z,9.65
2022-10-01T00:05:35.182Z,9.67
2022-10-01T00:06:35.198Z,9.72
2022-10-01T00:07:35.653Z,9.73
2022-10-01T00:08:35.562Z,9.73
2022-10-01T00:09:35.308Z,9.76
2022-10-01T00:10:35.202Z,9.77
2022-10-01T00:11:38.241Z,9.78
2022-10-01T00:12:35.289Z,9.78
2022-10-01T00:13:35.632Z,9.76
2022-10-01T00:14:35.291Z,9.77
2022-10-01T00:15:35.185Z,9.79
2022-10-01T00:16:35.335Z,9.81
2022-10-01T00:17:35.226Z,9.75
2022-10-01T00:18:35.638Z,9.74
2022-10-01T00:19:35.295Z,9.75
2022-10-01T00:20:35.189Z,9.74
2022-10-01T00:21:35.599Z,9.73
2022-10-01T00:22:41.294Z,9.75
2022-10-01T00:23:35.560Z,9.77
2022-10-01T00:24:35.298Z,9.78
2022-10-01T00:25:35.203Z,9.76
2022-10-01T00:26:35.200Z,9.74
2022-10-01T00:27:35.196Z,9.73
2022-10-01T00:28:35.553Z,9.75
2022-10-01T00:29:35.191Z,9.74
2022-10-01T00:30:39.636Z,9.7
2022-10-01T00:31:35.679Z,9.69
2022-10-01T00:32:35.209Z,9.68
2022-10-01T00:33:41.339Z,9.68
2022-10-01T00:34:35.295Z,9.66
2022-10-01T00:35:35.204Z,9.67
2022-10-01T00:36:35.190Z,9.67
2022-10-01T00:37:35.625Z,9.66
2022-10-01T00:38:35.554Z,9.62
2022-10-01T00:39:35.218Z,9.62
2022-10-01T00:40:35.188Z,9.65
2022-10-01T00:41:35.663Z,9.65
2022-10-01T00:42:35.626Z,9.64
2022-10-01T00:43:35.269Z,9.65
2022-10-01T00:44:38.233Z,9.65
2022-10-01T00:45:35.343Z,9.71
2022-10-01T00:46:35.191Z,9.72
2022-10-01T00:47:35.636Z,9.71
2022-10-01T00:48:35.286Z,9.72
2022-10-01T00:49:35.199Z,9.73
2022-10-01T00:50:35.168Z,9.75
2022-10-01T00:51:35.687Z,9.74
2022-10-01T00:52:35.632Z,9.74
2022-10-01T00:53:35.291Z,9.73
2022-10-01T00:54:35.181Z,9.75
2022-10-01T00:55:38.237Z,9.77
2022-10-01T00:56:35.307Z,9.79
2022-10-01T00:57:35.628Z,9.78
2022-10-01T00:58:35.275Z,9.82
2022-10-01T00:59:35.204Z,9.82
2022-10-01T01:00:35.196Z,9.8
2022-10-01T01:01:35.621Z,9.79
2022-10-01T01:02:35.692Z,9.79
2022-10-01T01:03:35.303Z,9.76
2022-10-01T01:04:35.193Z,9.76
2022-10-01T01:05:35.214Z,9.78
2022-10-01T01:06:38.215Z,9.8
2022-10-01T01:07:35.554Z,9.84
2022-10-01T01:08:35.283Z,9.86
2022-10-01T01:09:35.182Z,9.87
2022-10-01T01:10:35.187Z,9.87
2022-10-01T01:11:35.631Z,9.9
2022-10-01T01:12:35.555Z,9.92
2022-10-01T01:13:35.224Z,9.93
2022-10-01T01:14:35.204Z,9.94
2022-10-01T01:15:35.239Z,9.96
2022-10-01T01:16:35.204Z,9.97
2022-10-01T01:17:41.318Z,9.99
2022-10-01T01:18:35.262Z,10.03
2022-10-01T01:19:35.185Z,10.04
2022-10-01T01:20:35.194Z,10.05
2022-10-01T01:21:35.517Z,10.07
2022-10-01T01:22:35.636Z,10.07
2022-10-01T01:23:35.208Z,10.07
2022-10-01T01:24:35.203Z,10.13
2022-10-01T01:25:35.209Z,10.16
2022-10-01T01:26:35.205Z,10.16
2022-10-01T01:27:35.623Z,10.17
2022-10-01T01:28:38.213Z,10.17
2022-10-01T01:29:35.294Z,10.17
2022-10-01T01:30:35.218Z,10.2
2022-10-01T01:31:35.665Z,10.2
2022-10-01T01:32:35.628Z,10.16
2022-10-01T01:33:35.273Z,10.17
2022-10-01T01:34:35.178Z,10.18
2022-10-01T01:35:35.201Z,10.18
2022-10-01T01:36:35.203Z,10.15
2022-10-01T01:37:35.624Z,10.14
2022-10-01T01:38:35.283Z,10.14
2022-10-01T01:39:38.176Z,10.16
2022-10-01T01:40:35.305Z,10.17
2022-10-01T01:41:35.626Z,10.19
2022-10-01T01:42:35.621Z,10.21
2022-10-01T01:43:35.281Z,10.24
2022-10-01T01:44:35.171Z,10.27
2022-10-01T01:45:35.240Z,10.26
2022-10-01T01:46:35.197Z,10.27
2022-10-01T01:47:35.631Z,10.29
2022-10-01T01:48:35.289Z,10.27
2022-10-01T01:49:35.213Z,10.3
2022-10-01T01:50:38.222Z,10.3
2022-10-01T01:51:35.611Z,10.32
2022-10-01T01:52:35.628Z,10.34
2022-10-01T01:53:35.291Z,10.33
2022-10-01T01:54:35.185Z,10.34
2022-10-01T01:55:35.198Z,10.34
2022-10-01T01:56:35.198Z,10.34
2022-10-01T01:57:35.627Z,10.36
2022-10-01T01:58:35.266Z,10.37
2022-10-01T01:59:35.184Z,10.39
2022-10-01T02:00:35.198Z,10.4
2022-10-01T02:01:38.680Z,10.4
2022-10-01T02:02:35.416Z,10.4
2022-10-01T02:03:35.204Z,10.43
2022-10-01T02:04:35.191Z,10.44
2022-10-01T02:05:35.188Z,10.45
2022-10-01T02:06:35.190Z,10.45
2022-10-01T02:07:35.766Z,10.45
2022-10-01T02:08:35.212Z,10.48
2022-10-01T02:09:35.205Z,10.5
2022-10-01T02:10:35.185Z,10.51
2022-10-01T02:11:35.651Z,10.53
2022-10-01T02:12:41.301Z,10.53
2022-10-01T02:13:35.275Z,10.54
2022-10-01T02:14:35.185Z,10.53
2022-10-01T02:15:35.261Z,10.54
2022-10-01T02:16:35.201Z,10.55
2022-10-01T02:17:35.627Z,10.55
2022-10-01T02:18:35.183Z,10.57
2022-10-01T02:19:35.227Z,10.57
2022-10-01T02:20:35.190Z,10.56
2022-10-01T02:21:35.629Z,10.57
2022-10-01T02:22:35.626Z,10.57
2022-10-01T02:23:38.233Z,10.57
2022-10-01T02:24:35.270Z,10.6
2022-10-01T02:25:35.198Z,10.59
2022-10-01T02:26:35.188Z,10.61
2022-10-01T02:27:35.636Z,10.61
2022-10-01T02:28:35.284Z,10.61
2022-10-01T02:29:35.188Z,10.62
2022-10-01T02:30:35.192Z,10.63
2022-10-01T02:31:35.454Z,10.66
2022-10-01T02:32:35.742Z,10.65
2022-10-01T02:33:35.251Z,10.64
2022-10-01T02:34:38.364Z,10.64
2022-10-01T02:35:35.280Z,10.66
2022-10-01T02:36:35.186Z,10.66
2022-10-01T02:37:35.630Z,10.66
2022-10-01T02:38:35.304Z,10.65
2022-10-01T02:39:35.167Z,10.67
2022-10-01T02:40:35.209Z,10.68
2022-10-01T02:41:35.547Z,10.67
2022-10-01T02:42:35.624Z,10.68
2022-10-01T02:43:37.407Z,10.68
2022-10-01T02:44:35.195Z,10.67
2022-10-01T02:45:38.283Z,10.68
2022-10-01T02:46:35.286Z,10.67
2022-10-01T02:47:35.234Z,10.68
2022-10-01T02:48:35.185Z,10.71
2022-10-01T02:49:35.199Z,10.7
2022-10-01T02:50:35.200Z,10.72
2022-10-01T02:51:35.657Z,10.73
2022-10-01T02:52:35.636Z,10.76
2022-10-01T02:53:35.243Z,10.77
2022-10-01T02:54:35.200Z,10.77
2022-10-01T02:55:35.203Z,10.75
2022-10-01T02:56:48.208Z,10.74
2022-10-01T02:57:35.569Z,10.76
2022-10-01T02:58:35.282Z,10.77
2022-10-01T02:59:35.186Z,10.79
2022-10-01T03:00:35.200Z,10.8
2022-10-01T03:01:35.613Z,10.81
2022-10-01T03:02:35.630Z,10.81
2022-10-01T03:03:35.213Z,10.82
2022-10-01T03:04:35.198Z,10.82
2022-10-01T03:05:35.195Z,10.82
2022-10-01T03:06:35.201Z,10.83
2022-10-01T03:07:41.265Z,10.84
2022-10-01T03:08:35.268Z,10.84
2022-10-01T03:09:35.201Z,10.89
2022-10-01T03:10:35.205Z,10.91
2022-10-01T03:11:35.565Z,10.92
2022-10-01T03:12:35.629Z,10.92
2022-10-01T03:13:35.187Z,10.94
2022-10-01T03:14:35.181Z,10.97
2022-10-01T03:15:35.217Z,11
2022-10-01T03:16:35.193Z,10.99
2022-10-01T03:17:35.626Z,11.02
2022-10-01T03:18:38.222Z,11.04
2022-10-01T03:19:35.326Z,11.07
2022-10-01T03:20:35.197Z,11.09
2022-10-01T03:21:35.650Z,11.1
2022-10-01T03:22:35.636Z,11.11
2022-10-01T03:23:35.493Z,11.13
2022-10-01T03:24:35.182Z,11.15
2022-10-01T03:25:35.216Z,11.17
2022-10-01T03:26:35.203Z,11.18
2022-10-01T03:27:35.633Z,11.21
2022-10-01T03:28:35.272Z,11.21
2022-10-01T03:29:38.200Z,11.23
2022-10-01T03:30:35.251Z,11.24
2022-10-01T03:31:35.957Z,11.26
2022-10-01T03:32:35.641Z,11.31
2022-10-01T03:33:35.282Z,11.35
2022-10-01T03:34:35.202Z,11.37
2022-10-01T03:35:35.199Z,11.38
2022-10-01T03:36:35.196Z,11.4
2022-10-01T03:37:35.620Z,11.38
2022-10-01T03:38:35.274Z,11.38
2022-10-01T03:39:35.189Z,11.36
2022-10-01T03:40:38.175Z,11.35
2022-10-01T03:41:35.544Z,11.34
2022-10-01T03:42:35.622Z,11.3
2022-10-01T03:43:35.297Z,11.28
2022-10-01T03:44:35.193Z,11.23
2022-10-01T03:45:35.277Z,11.19
2022-10-01T03:46:35.200Z,11.18
2022-10-01T03:47:35.620Z,11.12
2022-10-01T03:48:35.291Z,11.09
2022-10-01T03:49:35.181Z,11.07
2022-10-01T03:50:35.212Z,11.05
2022-10-01T03:51:38.271Z,11.03
2022-10-01T03:52:35.425Z,11.04
2022-10-01T03:53:35.299Z,11.05
2022-10-01T03:54:35.180Z,11.01
2022-10-01T03:55:35.196Z,10.98
2022-10-01T03:56:35.202Z,10.96
2022-10-01T03:57:35.549Z,10.94
2022-10-01T03:58:35.187Z,10.93
2022-10-01T03:59:35.175Z,10.94
2022-10-01T04:00:35.196Z,10.95
2022-10-01T04:01:35.540Z,10.96
2022-10-01T04:02:41.324Z,10.97
2022-10-01T04:03:35.271Z,10.95
2022-10-01T04:04:35.182Z,10.93
2022-10-01T04:05:35.198Z,10.92
2022-10-01T04:06:35.207Z,10.91
2022-10-01T04:07:35.653Z,10.88
2022-10-01T04:08:35.218Z,10.86
2022-10-01T04:09:35.228Z,10.83
2022-10-01T04:10:35.219Z,10.8
2022-10-01T04:11:35.624Z,10.78
2022-10-01T04:12:35.628Z,10.76
2022-10-01T04:13:38.216Z,10.73
2022-10-01T04:14:35.266Z,10.71
2022-10-01T04:15:35.187Z,10.72
2022-10-01T04:16:35.245Z,10.7
2022-10-01T04:17:35.628Z,10.69
2022-10-01T04:18:35.371Z,10.67
2022-10-01T04:19:35.353Z,10.64
2022-10-01T04:20:35.199Z,10.64
2022-10-01T04:21:35.755Z,10.64
2022-10-01T04:22:35.637Z,10.63
2022-10-01T04:23:35.271Z,10.63
2022-10-01T04:24:38.208Z,10.63
2022-10-01T04:25:35.386Z,10.61
2022-10-01T04:26:35.413Z,10.61
2022-10-01T04:27:35.362Z,10.6
2022-10-01T04:28:35.306Z,10.59
2022-10-01T04:29:39.963Z,10.56
2022-10-01T04:30:35.330Z,10.56
2022-10-01T04:31:36.064Z,10.55
2022-10-01T04:32:35.739Z,10.55
2022-10-01T04:33:35.269Z,10.54
2022-10-01T04:34:35.270Z,10.5
2022-10-01T04:35:41.333Z,10.47
2022-10-01T04:36:35.288Z,10.44
2022-10-01T04:37:35.646Z,10.42
2022-10-01T04:38:35.269Z,10.4
2022-10-01T04:39:35.649Z,10.4
2022-10-01T04:40:35.564Z,10.4
2022-10-01T04:41:35.612Z,10.36
2022-10-01T04:42:35.331Z,10.37
2022-10-01T04:43:35.370Z,10.35
2022-10-01T04:44:35.296Z,10.33
2022-10-01T04:45:35.357Z,10.3
2022-10-01T04:46:38.232Z,10.28
2022-10-01T04:47:37.584Z,10.29
2022-10-01T04:48:35.188Z,10.3
2022-10-01T04:49:35.286Z,10.31
2022-10-01T04:50:35.637Z,10.31
2022-10-01T04:51:35.787Z,10.3
2022-10-01T04:52:35.204Z,10.29
2022-10-01T04:53:35.200Z,10.27
2022-10-01T04:54:35.651Z,10.28
2022-10-01T04:55:35.566Z,10.26
2022-10-01T04:56:35.277Z,10.24
2022-10-01T04:57:38.209Z,10.27
2022-10-01T04:58:35.239Z,10.27
2022-10-01T04:59:35.183Z,10.27
2022-10-01T05:00:35.738Z,10.26
2022-10-01T05:01:35.876Z,10.24
2022-10-01T05:02:35.323Z,10.22
2022-10-01T05:03:35.330Z,10.22
2022-10-01T05:04:35.287Z,10.2
2022-10-01T05:05:35.342Z,10.2
2022-10-01T05:06:35.404Z,10.22
2022-10-01T05:07:35.262Z,10.22
2022-10-01T05:08:38.332Z,10.2
2022-10-01T05:09:35.570Z,10.21
2022-10-01T05:10:35.580Z,10.2
2022-10-01T05:11:35.629Z,10.2
2022-10-01T05:12:35.215Z,10.2
2022-10-01T05:13:35.321Z,10.22
2022-10-01T05:14:35.305Z,10.24
2022-10-01T05:15:35.645Z,10.24
2022-10-01T05:16:35.333Z,10.23
2022-10-01T05:17:35.198Z,10.22
2022-10-01T05:18:35.197Z,10.21
2022-10-01T05:19:38.268Z,10.22
2022-10-01T05:20:35.569Z,10.23
2022-10-01T05:21:35.642Z,10.26
2022-10-01T05:22:35.307Z,10.25
2022-10-01T05:23:35.292Z,10.26
2022-10-01T05:24:35.562Z,10.27
2022-10-01T05:25:35.568Z,10.29
2022-10-01T05:26:35.347Z,10.31
2022-10-01T05:27:35.367Z,10.33
2022-10-01T05:28:35.486Z,10.36
2022-10-01T05:29:35.407Z,10.38
2022-10-01T05:30:41.269Z,10.38
2022-10-01T05:31:35.629Z,10.36
2022-10-01T05:32:35.240Z,10.35
2022-10-01T05:33:35.324Z,10.34
2022-10-01T05:34:35.292Z,10.36
2022-10-01T05:35:35.647Z,10.35
2022-10-01T05:36:35.203Z,10.36
2022-10-01T05:37:35.271Z,10.29
2022-10-01T05:38:35.202Z,10.3
2022-10-01T05:39:35.637Z,10.31
2022-10-01T05:40:35.575Z,10.31
2022-10-01T05:41:38.237Z,10.31
2022-10-01T05:42:35.266Z,10.32
2022-10-01T05:43:35.183Z,10.32
2022-10-01T05:44:35.192Z,10.3
2022-10-01T05:45:35.662Z,10.3
2022-10-01T05:46:35.421Z,10.31
2022-10-01T05:47:35.252Z,10.3
2022-10-01T05:48:35.301Z,10.33
2022-10-01T05:49:35.357Z,10.35
2022-10-01T05:50:35.325Z,10.37
2022-10-01T05:51:35.788Z,10.4
2022-10-01T05:52:38.232Z,10.42
2022-10-01T05:53:35.407Z,10.45
2022-10-01T05:54:35.570Z,10.45
2022-10-01T05:55:35.572Z,10.46
2022-10-01T05:56:35.354Z,10.49
2022-10-01T05:57:35.201Z,10.47
2022-10-01T05:58:35.304Z,10.47
2022-10-01T05:59:35.216Z,10.47
2022-10-01T06:00:35.570Z,10.47
2022-10-01T06:01:35.607Z,10.48
2022-10-01T06:02:35.315Z,10.49
2022-10-01T06:03:38.229Z,10.46
2022-10-01T06:04:40.316Z,10.47
2022-10-01T06:05:35.636Z,10.5
2022-10-01T06:06:35.267Z,10.5
2022-10-01T06:07:35.263Z,10.49
2022-10-01T06:08:35.195Z,10.48
2022-10-01T06:09:35.570Z,10.48
2022-10-01T06:10:35.635Z,10.47
2022-10-01T06:11:35.848Z,10.45
2022-10-01T06:12:35.282Z,10.46
2022-10-01T06:13:35.303Z,10.46
2022-10-01T06:14:38.361Z,10.46
2022-10-01T06:15:35.359Z,10.48
2022-10-01T06:16:35.293Z,10.44
2022-10-01T06:17:35.339Z,10.49
2022-10-01T06:18:35.383Z,10.51
2022-10-01T06:19:35.393Z,10.53
2022-10-01T06:20:35.571Z,10.53
2022-10-01T06:21:35.701Z,10.54
2022-10-01T06:22:35.268Z,10.56
2022-10-01T06:23:35.315Z,10.55
2022-10-01T06:24:35.560Z,10.52
2022-10-01T06:25:41.298Z,10.5
2022-10-01T06:26:35.292Z,10.5
2022-10-01T06:27:35.200Z,10.51
2022-10-01T06:28:35.204Z,10.5
2022-10-01T06:29:35.182Z,10.48
2022-10-01T06:30:35.648Z,10.48
2022-10-01T06:31:35.677Z,10.5
2022-10-01T06:32:35.339Z,10.47
2022-10-01T06:33:35.326Z,10.5
2022-10-01T06:34:35.300Z,10.51
2022-10-01T06:35:35.641Z,10.52
2022-10-01T06:36:38.334Z,10.52
2022-10-01T06:37:35.307Z,10.51
2022-10-01T06:38:35.192Z,10.49
2022-10-01T06:39:35.651Z,10.5
2022-10-01T06:40:35.570Z,10.53
2022-10-01T06:41:35.852Z,10.54
2022-10-01T06:42:35.216Z,10.55
2022-10-01T06:43:35.183Z,10.55
2022-10-01T06:44:35.201Z,10.55
2022-10-01T06:45:35.264Z,10.58
2022-10-01T06:46:35.352Z,10.55
2022-10-01T06:47:38.217Z,10.51
2022-10-01T06:48:35.282Z,10.53
2022-10-01T06:49:35.320Z,10.58
2022-10-01T06:50:35.295Z,10.55
2022-10-01T06:51:35.614Z,10.51
2022-10-01T06:52:35.300Z,10.52
2022-10-01T06:53:35.185Z,10.5
2022-10-01T06:54:35.650Z,10.52
2022-10-01T06:55:35.568Z,10.52
2022-10-01T06:56:35.281Z,10.58
2022-10-01T06:57:35.189Z,10.6
2022-10-01T06:58:38.207Z,10.63
2022-10-01T06:59:35.369Z,10.64
2022-10-01T07:00:35.571Z,10.64
2022-10-01T07:01:35.585Z,10.59
2022-10-01T07:02:35.439Z,10.6
2022-10-01T07:03:35.378Z,10.65
2022-10-01T07:04:35.345Z,10.72
2022-10-01T07:05:35.641Z,10.76
2022-10-01T07:06:35.419Z,10.72
2022-10-01T07:07:35.330Z,10.74
2022-10-01T07:08:35.276Z,10.76
2022-10-01T07:09:41.258Z,10.72
2022-10-01T07:10:35.594Z,10.77
2022-10-01T07:11:35.630Z,10.79
2022-10-01T07:12:35.298Z,10.84
2022-10-01T07:13:35.385Z,10.83
2022-10-01T07:14:35.321Z,10.84
2022-10-01T07:15:35.273Z,10.87
2022-10-01T07:16:35.235Z,10.84
2022-10-01T07:17:35.280Z,10.77
2022-10-01T07:18:35.201Z,10.68
2022-10-01T07:19:35.335Z,10.63
2022-10-01T07:20:41.253Z,10.6
2022-10-01T07:21:35.757Z,10.58
2022-10-01T07:22:35.213Z,10.61
2022-10-01T07:23:35.186Z,10.67
2022-10-01T07:24:35.639Z,10.71
2022-10-01T07:25:35.582Z,10.78
2022-10-01T07:26:35.185Z,10.82
2022-10-01T07:27:35.359Z,10.87
2022-10-01T07:28:35.307Z,10.86
2022-10-01T07:29:35.196Z,10.89
2022-10-01T07:30:35.577Z,10.93
2022-10-01T07:31:38.892Z,10.93
2022-10-01T07:32:35.364Z,10.9
2022-10-01T07:33:35.280Z,10.87
2022-10-01T07:34:35.275Z,10.81
2022-10-01T07:35:35.564Z,10.81
2022-10-01T07:36:35.292Z,10.74
2022-10-01T07:37:35.199Z,10.73
2022-10-01T07:38:35.286Z,10.78
2022-10-01T07:39:35.647Z,10.79
2022-10-01T07:40:35.568Z,10.83
2022-10-01T07:41:35.495Z,10.8
2022-10-01T07:42:38.325Z,10.79
2022-10-01T07:43:35.340Z,10.8
2022-10-01T07:44:35.291Z,10.78
2022-10-01T07:45:35.458Z,10.77
2022-10-01T07:46:35.214Z,10.77
2022-10-01T07:47:35.306Z,10.78
2022-10-01T07:48:35.212Z,10.76
2022-10-01T07:49:35.199Z,10.8
2022-10-01T07:50:35.638Z,10.8
2022-10-01T07:51:35.653Z,10.82
2022-10-01T07:52:35.216Z,10.83
2022-10-01T07:53:38.254Z,10.8
2022-10-01T07:54:35.652Z,10.84
2022-10-01T07:55:35.606Z,10.85
2022-10-01T07:56:35.307Z,10.84
2022-10-01T07:57:35.263Z,10.83
2022-10-01T07:58:35.338Z,10.82
2022-10-01T07:59:35.349Z,10.83
2022-10-01T08:00:35.640Z,10.9
2022-10-01T08:01:35.554Z,10.9
2022-10-01T08:02:35.232Z,10.88
2022-10-01T08:03:35.174Z,10.9
2022-10-01T08:04:38.333Z,10.92
2022-10-01T08:05:35.572Z,10.91
2022-10-01T08:06:35.292Z,10.93
2022-10-01T08:07:35.297Z,10.92
2022-10-01T08:08:35.376Z,10.93
2022-10-01T08:09:35.644Z,10.94
2022-10-01T08:10:35.566Z,10.89
2022-10-01T08:11:35.715Z,10.87
2022-10-01T08:12:35.389Z,10.91
2022-10-01T08:13:35.383Z,10.93
2022-10-01T08:14:35.396Z,10.99
2022-10-01T08:15:41.291Z,11.03
2022-10-01T08:16:35.430Z,11.01
2022-10-01T08:17:35.331Z,11.02
2022-10-01T08:18:35.305Z,10.98
2022-10-01T08:19:35.306Z,10.99
2022-10-01T08:20:35.280Z,10.97
2022-10-01T08:21:35.548Z,11
2022-10-01T08:22:38.634Z,11.01
2022-10-01T08:23:35.325Z,11.01
2022-10-01T08:24:35.397Z,11.02
2022-10-01T08:25:35.382Z,11.04
2022-10-01T08:26:38.225Z,11.06
2022-10-01T08:27:35.385Z,11.07
2022-10-01T08:28:35.332Z,11.09
2022-10-01T08:29:35.334Z,11.1
2022-10-01T08:30:35.525Z,11.12
2022-10-01T08:31:35.789Z,11.13
2022-10-01T08:32:35.210Z,11.13
2022-10-01T08:33:35.294Z,11.15
2022-10-01T08:34:35.204Z,11.15
2022-10-01T08:35:35.187Z,11.15
2022-10-01T08:36:35.203Z,11.16
2022-10-01T08:37:41.241Z,11.16
2022-10-01T08:38:35.284Z,11.13
2022-10-01T08:39:35.237Z,11.13
2022-10-01T08:40:35.406Z,11.13
2022-10-01T08:41:35.814Z,11.1
2022-10-01T08:42:35.423Z,11.17
2022-10-01T08:43:35.299Z,11.19
2022-10-01T08:44:35.298Z,11.17
2022-10-01T08:45:35.392Z,11.13
2022-10-01T08:46:35.329Z,11.13
2022-10-01T08:47:35.564Z,11.09
2022-10-01T08:48:38.294Z,11.1
2022-10-01T08:49:35.364Z,11.13
2022-10-01T08:50:35.213Z,11.15
2022-10-01T08:51:35.637Z,11.23
2022-10-01T08:52:35.630Z,11.21
2022-10-01T08:53:35.277Z,11.21
2022-10-01T08:54:35.200Z,11.21
2022-10-01T08:55:35.204Z,11.21
2022-10-01T08:56:35.332Z,11.19
2022-10-01T08:57:35.199Z,11.15
2022-10-01T08:58:35.202Z,11.19
2022-10-01T08:59:38.233Z,11.18
2022-10-01T09:00:35.264Z,11.17
2022-10-01T09:01:35.557Z,11.15
2022-10-01T09:02:35.632Z,11.18
2022-10-01T09:03:35.405Z,11.18
2022-10-01T09:04:35.479Z,11.21
2022-10-01T09:05:35.285Z,11.22
2022-10-01T09:06:35.328Z,11.23
2022-10-01T09:07:35.633Z,11.25
2022-10-01T09:08:35.287Z,11.25
2022-10-01T09:09:35.272Z,11.29
2022-10-01T09:10:38.320Z,11.29
2022-10-01T09:11:35.635Z,11.33
2022-10-01T09:12:35.349Z,11.35
2022-10-01T09:13:35.379Z,11.37
2022-10-01T09:14:35.188Z,11.44
2022-10-01T09:15:35.208Z,11.47
2022-10-01T09:16:35.365Z,11.5
2022-10-01T09:17:35.322Z,11.5
2022-10-01T09:18:35.256Z,11.47
2022-10-01T09:19:35.184Z,11.38
2022-10-01T09:20:35.205Z,11.3
2022-10-01T09:21:38.239Z,11.32
2022-10-01T09:22:35.567Z,11.36
2022-10-01T09:23:35.388Z,11.36
2022-10-01T09:24:35.287Z,11.42
2022-10-01T09:25:35.284Z,11.43
2022-10-01T09:26:35.376Z,11.5
2022-10-01T09:27:35.202Z,11.57
2022-10-01T09:28:35.286Z,11.57
2022-10-01T09:29:35.333Z,11.58
2022-10-01T09:30:35.323Z,11.63
2022-10-01T09:31:36.146Z,11.65
2022-10-01T09:32:38.362Z,11.63
2022-10-01T09:33:35.374Z,11.62
2022-10-01T09:34:35.393Z,11.59
2022-10-01T09:35:35.190Z,11.61
2022-10-01T09:36:35.629Z,11.66
2022-10-01T09:37:35.558Z,11.71
2022-10-01T09:38:35.201Z,11.7
2022-10-01T09:39:35.308Z,11.65
2022-10-01T09:40:35.289Z,11.65
2022-10-01T09:41:35.990Z,11.68
2022-10-01T09:42:35.409Z,11.71
2022-10-01T09:43:38.346Z,11.75
2022-10-01T09:44:35.397Z,11.74
2022-10-01T09:45:35.394Z,11.71
2022-10-01T09:46:35.291Z,11.7
2022-10-01T09:47:35.277Z,11.71
2022-10-01T09:48:35.340Z,11.69
2022-10-01T09:49:35.206Z,11.72
2022-10-01T09:50:35.198Z,11.73
2022-10-01T09:51:40.053Z,11.73
2022-10-01T09:52:35.296Z,11.71
2022-10-01T09:53:35.305Z,11.64
2022-10-01T09:54:38.289Z,11.63
2022-10-01T09:55:35.337Z,11.7
2022-10-01T09:56:35.331Z,11.79
2022-10-01T09:57:35.303Z,11.84
2022-10-01T09:58:35.290Z,11.98
2022-10-01T09:59:35.279Z,12
2022-10-01T10:00:35.210Z,12.01
2022-10-01T10:01:35.977Z,12.04
2022-10-01T10:02:35.490Z,12.06
2022-10-01T10:03:35.417Z,12.15
2022-10-01T10:04:35.299Z,12.23
2022-10-01T10:05:38.197Z,12.35
2022-10-01T10:06:35.630Z,12.37
2022-10-01T10:07:35.308Z,12.32
2022-10-01T10:08:35.347Z,12.31
2022-10-01T10:09:35.313Z,12.32
2022-10-01T10:10:35.335Z,12.33
2022-10-01T10:11:36.040Z,12.47
2022-10-01T10:12:35.227Z,12.57
2022-10-01T10:13:35.492Z,12.51
2022-10-01T10:14:35.416Z,12.5
2022-10-01T10:15:35.505Z,12.48
2022-10-01T10:16:41.249Z,12.4
2022-10-01T10:17:35.319Z,12.37
2022-10-01T10:18:35.513Z,12.41
2022-10-01T10:19:35.376Z,12.4
2022-10-01T10:20:35.332Z,12.45
2022-10-01T10:21:35.574Z,12.48
2022-10-01T10:22:35.198Z,12.53
2022-10-01T10:23:35.190Z,12.62
2022-10-01T10:24:35.284Z,12.64
2022-10-01T10:25:35.188Z,12.53
2022-10-01T10:26:35.621Z,12.51
2022-10-01T10:27:38.206Z,12.4
2022-10-01T10:28:38.572Z,12.33
2022-10-01T10:29:35.286Z,12.31
2022-10-01T10:30:35.295Z,12.43
2022-10-01T10:31:35.418Z,12.45
2022-10-01T10:32:35.301Z,12.45
2022-10-01T10:33:35.282Z,12.47
2022-10-01T10:34:35.189Z,12.42
2022-10-01T10:35:35.208Z,12.42
2022-10-01T10:36:36.133Z,12.46
2022-10-01T10:37:35.413Z,12.47
2022-10-01T10:38:38.241Z,12.46
2022-10-01T10:39:35.289Z,12.49
2022-10-01T10:40:35.306Z,12.64
2022-10-01T10:41:35.788Z,12.68
2022-10-01T10:42:35.358Z,12.8
2022-10-01T10:43:35.291Z,12.97
2022-10-01T10:44:35.350Z,13.17
2022-10-01T10:45:35.304Z,13.25
2022-10-01T10:46:35.437Z,13.16
2022-10-01T10:47:35.177Z,13.04
2022-10-01T10:48:35.339Z,13.02
2022-10-01T10:49:38.340Z,12.99
2022-10-01T10:50:35.358Z,12.99
2022-10-01T10:51:36.140Z,13
2022-10-01T10:52:35.282Z,13.06
2022-10-01T10:53:35.200Z,13.05
2022-10-01T10:54:35.186Z,12.99
2022-10-01T10:55:35.204Z,12.89
2022-10-01T10:56:35.810Z,12.83
2022-10-01T10:57:35.204Z,12.8
2022-10-01T10:58:35.197Z,12.81
2022-10-01T10:59:35.202Z,12.95
2022-10-01T11:00:38.273Z,13.25
2022-10-01T11:01:35.899Z,13.58
2022-10-01T11:02:35.483Z,13.81
2022-10-01T11:03:35.205Z,13.9
2022-10-01T11:04:35.248Z,14.06
2022-10-01T11:05:35.300Z,14.26
2022-10-01T11:06:35.974Z,14.45
2022-10-01T11:07:35.194Z,14.52
2022-10-01T11:08:35.215Z,14.73
2022-10-01T11:09:35.626Z,14.77
2022-10-01T11:10:35.252Z,14.8
2022-10-01T11:11:41.221Z,14.76
2022-10-01T11:12:35.369Z,14.86
2022-10-01T11:13:35.264Z,14.87
2022-10-01T11:14:35.335Z,14.76
2022-10-01T11:15:35.387Z,14.78
2022-10-01T11:16:35.607Z,14.93
2022-10-01T11:17:35.183Z,15
2022-10-01T11:18:35.209Z,15.08
2022-10-01T11:19:35.200Z,15.15
2022-10-01T11:20:35.185Z,15.12
2022-10-01T11:21:35.704Z,15.06
2022-10-01T11:22:38.294Z,15.07
2022-10-01T11:23:35.337Z,15.09
2022-10-01T11:24:35.295Z,14.9
2022-10-01T11:25:35.398Z,14.63
2022-10-01T11:26:35.923Z,14.56
2022-10-01T11:27:35.373Z,14.62
2022-10-01T11:28:35.354Z,14.7
2022-10-01T11:29:35.280Z,14.62
2022-10-01T11:30:35.195Z,14.48
2022-10-01T11:31:35.720Z,14.52
2022-10-01T11:32:35.361Z,14.55
2022-10-01T11:33:38.249Z,14.58
2022-10-01T11:34:35.287Z,14.5
2022-10-01T11:35:35.322Z,14.3
2022-10-01T11:36:35.942Z,14.24
2022-10-01T11:37:35.632Z,14.2
2022-10-01T11:38:35.380Z,14.06
2022-10-01T11:39:35.200Z,13.91
2022-10-01T11:40:35.183Z,13.89
2022-10-01T11:41:35.633Z,13.88
2022-10-01T11:42:35.272Z,13.94
2022-10-01T11:43:35.336Z,14.02
2022-10-01T11:44:38.296Z,14.23
2022-10-01T11:45:35.412Z,14.62
2022-10-01T11:46:35.814Z,14.87
2022-10-01T11:47:35.394Z,15.21
2022-10-01T11:48:35.292Z,15.36
2022-10-01T11:49:35.303Z,15.36
2022-10-01T11:50:39.253Z,15.45
2022-10-01T11:51:35.627Z,15.58
2022-10-01T11:52:35.565Z,15.47
2022-10-01T11:53:35.416Z,15.32
2022-10-01T11:54:35.386Z,15.13
2022-10-01T11:55:38.273Z,15
2022-10-01T11:56:35.739Z,14.85
2022-10-01T11:57:35.397Z,14.91
2022-10-01T11:58:35.335Z,14.89
2022-10-01T11:59:35.290Z,15.03
2022-10-01T12:00:35.179Z,15.24
2022-10-01T12:01:35.659Z,15.35
2022-10-01T12:02:35.278Z,15.37
2022-10-01T12:03:35.301Z,15.5
2022-10-01T12:04:35.311Z,15.63
2022-10-01T12:05:35.343Z,15.87
2022-10-01T12:06:38.613Z,15.99
2022-10-01T12:07:35.561Z,15.93
2022-10-01T12:08:35.373Z,15.95
2022-10-01T12:09:35.281Z,16.04
2022-10-01T12:10:35.340Z,16.08
2022-10-01T12:11:35.356Z,15.96
2022-10-01T12:12:35.322Z,15.82
2022-10-01T12:13:35.310Z,15.81
2022-10-01T12:14:35.290Z,15.73
2022-10-01T12:15:35.308Z,15.74
2022-10-01T12:16:35.955Z,15.85
2022-10-01T12:17:38.259Z,15.95
2022-10-01T12:18:35.351Z,15.97
2022-10-01T12:19:35.288Z,15.89
2022-10-01T12:20:35.309Z,16.06
2022-10-01T12:21:35.387Z,16.35
2022-10-01T12:22:35.562Z,16.33
2022-10-01T12:23:35.187Z,16.41
2022-10-01T12:24:35.208Z,16.31
2022-10-01T12:25:35.217Z,16.12
2022-10-01T12:26:35.706Z,15.95
2022-10-01T12:27:35.295Z,15.83
2022-10-01T12:28:38.299Z,15.85
2022-10-01T12:29:35.304Z,15.92
2022-10-01T12:30:35.203Z,15.88
2022-10-01T12:31:35.216Z,15.79
2022-10-01T12:32:35.328Z,15.83
2022-10-01T12:33:35.347Z,15.89
2022-10-01T12:34:35.315Z,16
2022-10-01T12:35:35.219Z,16.28
2022-10-01T12:36:35.547Z,16.26
2022-10-01T12:37:35.259Z,16.26
2022-10-01T12:38:35.202Z,16.31
2022-10-01T12:39:38.245Z,16.4
2022-10-01T12:40:35.363Z,16.37
2022-10-01T12:41:35.282Z,16.31
2022-10-01T12:42:35.416Z,16.35
2022-10-01T12:43:35.361Z,16.67
2022-10-01T12:44:35.191Z,16.89
2022-10-01T12:45:35.304Z,16.98
2022-10-01T12:46:35.491Z,16.79
2022-10-01T12:47:35.215Z,16.63
2022-10-01T12:48:35.226Z,16.47
2022-10-01T12:49:35.192Z,16.41
2022-10-01T12:50:38.226Z,16.38
2022-10-01T12:51:35.555Z,16.35
2022-10-01T12:52:35.561Z,16.17
2022-10-01T12:53:35.377Z,16.05
2022-10-01T12:54:35.323Z,15.94
2022-10-01T12:55:35.262Z,15.86
2022-10-01T12:56:35.907Z,15.93
2022-10-01T12:57:35.309Z,16.03
2022-10-01T12:58:35.327Z,15.96